Time;durP1;ratioP1;P1;durP2;ratioP2;P2;SDS_P1;SDS_P2;PMS_P1;PMS_P2;Temp;Humidity;BMP_temperature;BMP_pressure;BME280_temperature;BME280_humidity;BME280_pressure;Samples;Min_cycle;Max_cycle;Signal;HPM_P1;HPM_P2
2021/07/31 00:01:08;;;;;;;11.68;9.30;;;;;;;24.16;58.69;99169.14;1775090;80;21500;-80
2021/07/31 00:03:35;;;;;;;11.48;8.68;;;;;;;24.10;58.67;99160.92;1775281;80;21474;-72
2021/07/31 00:06:02;;;;;;;10.80;9.75;;;;;;;24.01;59.00;99167.16;1775131;80;21521;-71
2021/07/31 00:08:29;;;;;;;10.58;8.98;;;;;;;23.94;59.54;99160.08;1779195;79;21277;-71
2021/07/31 00:10:57;;;;;;;12.68;10.10;;;;;;;23.92;59.33;99168.69;1802863;79;20911;-73
2021/07/31 00:13:26;;;;;;;9.88;8.85;;;;;;;23.92;60.50;99167.32;1782149;79;21500;-74
2021/07/31 00:15:52;;;;;;;14.25;8.45;;;;;;;23.87;59.33;99167.57;1782528;79;21531;-72
2021/07/31 00:18:19;;;;;;;18.05;9.93;;;;;;;23.87;60.83;99171.69;1779996;79;20950;-72
2021/07/31 00:20:47;;;;;;;9.50;7.87;;;;;;;23.80;59.86;99168.16;1775866;80;21914;-71
2021/07/31 00:23:13;;;;;;;11.97;7.72;;;;;;;23.81;59.35;99167.59;1775628;80;20939;-71
2021/07/31 00:25:39;;;;;;;12.37;8.50;;;;;;;23.81;59.12;99173.89;1751458;80;20928;-71
2021/07/31 00:28:07;;;;;;;13.98;8.23;;;;;;;23.85;59.38;99175.34;1775423;80;20968;-70
2021/07/31 00:30:36;;;;;;;14.25;8.23;;;;;;;23.88;59.15;99176.05;1789364;79;20981;-70
2021/07/31 00:33:04;;;;;;;11.55;9.55;;;;;;;23.94;59.03;99165.00;1794793;80;20941;-70
2021/07/31 00:35:32;;;;;;;10.45;8.40;;;;;;;23.99;58.96;99163.95;1794606;80;21509;-68
2021/07/31 00:37:58;;;;;;;12.63;7.55;;;;;;;24.05;58.64;99163.35;1753924;80;20990;-71
2021/07/31 00:40:25;;;;;;;10.40;7.40;;;;;;;24.11;58.58;99166.07;1776423;80;21502;-77
2021/07/31 00:42:51;;;;;;;12.47;8.55;;;;;;;24.16;58.51;99160.89;1750769;80;21017;-75
2021/07/31 00:45:18;;;;;;;15.85;7.58;;;;;;;24.20;58.41;99165.36;1776424;80;21057;-77
2021/07/31 00:47:45;;;;;;;11.63;8.18;;;;;;;24.20;58.36;99156.31;1776639;79;20919;-75
2021/07/31 00:50:13;;;;;;;16.62;9.08;;;;;;;24.19;58.48;99159.63;1779098;79;21462;-77
2021/07/31 00:52:39;;;;;;;12.28;8.45;;;;;;;24.20;58.58;99164.56;1775340;80;20914;-73
2021/07/31 00:55:09;;;;;;;13.53;9.83;;;;;;;24.19;58.60;99165.70;1775022;80;20942;-72
2021/07/31 00:57:36;;;;;;;10.95;9.08;;;;;;;24.03;59.28;99156.63;1750927;80;21486;-73
2021/07/31 01:00:06;;;;;;;14.23;10.35;;;;;;;23.89;59.88;99162.51;1748412;80;20991;-70
2021/07/31 01:02:33;;;;;;;12.88;9.88;;;;;;;23.80;60.05;99162.67;1775276;80;20925;-72
2021/07/31 01:05:00;;;;;;;14.85;9.13;;;;;;;23.84;59.75;99161.39;1775306;80;20874;-72
2021/07/31 01:07:26;;;;;;;12.65;9.10;;;;;;;23.84;59.83;99164.13;1775508;80;21064;-73
2021/07/31 01:09:53;;;;;;;16.23;8.98;;;;;;;23.77;60.02;99162.01;1772384;80;21214;-72
2021/07/31 01:12:19;;;;;;;10.13;8.78;;;;;;;23.71;60.17;99159.28;1758595;80;21666;-71
2021/07/31 01:14:45;;;;;;;13.78;9.95;;;;;;;23.68;60.27;99164.67;1742531;80;20975;-74
2021/07/31 01:17:14;;;;;;;12.58;7.92;;;;;;;23.65;60.28;99157.92;1794527;80;21577;-70
2021/07/31 01:19:42;;;;;;;12.73;8.53;;;;;;;23.67;60.24;99154.84;1785352;80;21557;-73
2021/07/31 01:22:09;;;;;;;10.05;9.05;;;;;;;23.68;60.10;99155.87;1775385;80;21202;-75
2021/07/31 01:24:36;;;;;;;16.55;7.50;;;;;;;23.72;60.05;99160.88;1769906;80;21026;-73
2021/07/31 01:27:04;;;;;;;11.30;8.10;;;;;;;23.74;59.79;99158.57;1742546;81;21006;-75
2021/07/31 01:29:30;;;;;;;14.05;8.30;;;;;;;23.80;59.71;99164.61;1762593;80;21074;-73
2021/07/31 01:31:57;;;;;;;10.68;7.55;;;;;;;23.81;59.52;99164.84;1761781;81;21007;-74
2021/07/31 01:34:24;;;;;;;10.85;8.65;;;;;;;23.84;59.30;99164.94;1761810;81;22818;-74
2021/07/31 01:36:52;;;;;;;12.10;8.90;;;;;;;23.72;59.24;99161.45;1761562;81;20988;-73
2021/07/31 01:39:18;;;;;;;12.68;8.73;;;;;;;23.63;59.37;99157.48;1762733;81;21463;-74
2021/07/31 01:41:45;;;;;;;11.30;9.30;;;;;;;23.63;59.09;99164.36;1762935;81;20943;-75
2021/07/31 01:44:12;;;;;;;8.13;7.33;;;;;;;23.65;59.08;99157.13;1740663;81;21012;-76
2021/07/31 01:46:40;;;;;;;11.30;8.18;;;;;;;23.69;58.68;99156.07;1757099;81;21091;-70
2021/07/31 01:49:06;;;;;;;10.43;7.10;;;;;;;23.66;58.96;99154.03;1763274;81;21058;-72
2021/07/31 01:51:35;;;;;;;7.12;5.90;;;;;;;23.61;59.01;99158.40;1769769;80;20970;-71
2021/07/31 01:54:03;;;;;;;8.50;7.08;;;;;;;23.57;59.02;99153.95;1743431;81;21064;-74
2021/07/31 01:56:29;;;;;;;8.25;7.28;;;;;;;23.55;59.01;99154.30;1743596;81;21026;-71
2021/07/31 01:58:57;;;;;;;9.75;7.47;;;;;;;23.55;58.95;99160.39;1763497;81;21131;-71
2021/07/31 02:01:24;;;;;;;10.05;7.90;;;;;;;23.57;58.80;99160.25;1743729;81;21524;-72
2021/07/31 02:03:52;;;;;;;14.70;8.25;;;;;;;23.60;58.93;99168.35;1743896;81;20959;-71
2021/07/31 02:06:28;;;;;;;11.43;8.63;;;;;;;23.62;58.92;99161.95;1762283;81;21087;-72
2021/07/31 02:08:55;;;;;;;13.80;9.13;;;;;;;23.53;58.94;99157.18;1743478;81;21041;-73
2021/07/31 02:11:23;;;;;;;10.90;7.70;;;;;;;23.46;59.02;99161.31;1776597;80;21188;-71
2021/07/31 02:13:51;;;;;;;11.68;9.73;;;;;;;23.42;59.22;99158.20;1773251;79;21026;-71
2021/07/31 02:16:23;;;;;;;12.90;8.08;;;;;;;23.37;59.92;99168.86;1762462;81;21078;-71
2021/07/31 02:18:51;;;;;;;15.35;8.85;;;;;;;23.34;59.61;99169.56;1759570;81;20971;-72
2021/07/31 02:21:18;;;;;;;9.10;8.13;;;;;;;23.33;59.37;99163.03;1743264;81;21002;-71
2021/07/31 02:23:53;;;;;;;11.03;8.43;;;;;;;23.32;59.53;99164.98;1734951;81;21142;-71
2021/07/31 02:26:22;;;;;;;12.33;9.33;;;;;;;23.32;59.71;99173.21;1728900;81;20960;-70
2021/07/31 02:28:51;;;;;;;22.30;10.18;;;;;;;23.30;60.05;99171.97;1705753;81;20981;-72
2021/07/31 02:31:19;;;;;;;9.60;8.60;;;;;;;23.28;60.03;99177.00;1756415;80;21540;-70
2021/07/31 02:33:47;;;;;;;12.75;9.48;;;;;;;23.24;60.27;99168.67;1748047;81;21029;-70
2021/07/31 02:36:15;;;;;;;8.95;7.70;;;;;;;23.29;59.99;99171.17;1748190;81;22063;-70
2021/07/31 02:38:49;;;;;;;11.35;8.30;;;;;;;23.24;60.14;99174.16;1737826;80;21489;-70
2021/07/31 02:41:17;;;;;;;13.48;9.30;;;;;;;23.21;60.44;99175.43;1753909;81;20934;-70
2021/07/31 02:43:45;;;;;;;10.05;9.05;;;;;;;23.11;61.04;99181.38;1754056;81;21459;-73
2021/07/31 02:46:11;;;;;;;12.18;9.60;;;;;;;23.08;61.36;99183.42;1753901;81;21006;-73
2021/07/31 02:48:39;;;;;;;10.25;8.68;;;;;;;23.06;60.99;99183.79;1763366;80;21787;-72
2021/07/31 02:51:11;;;;;;;12.33;9.15;;;;;;;23.08;60.70;99182.86;1751773;80;21008;-72
2021/07/31 02:53:55;;;;;;;11.73;8.08;;;;;;;23.08;61.24;99184.23;1787996;80;20956;-72
2021/07/31 02:56:21;;;;;;;11.25;8.25;;;;;;;23.08;60.59;99182.86;1782579;80;21484;-73
2021/07/31 02:58:50;;;;;;;12.33;8.30;;;;;;;23.10;60.28;99186.64;1755788;81;21035;-73
2021/07/31 03:01:19;;;;;;;9.75;8.75;;;;;;;23.12;60.14;99182.39;1772137;80;21788;-72
2021/07/31 03:03:48;;;;;;;9.65;8.65;;;;;;;23.17;60.07;99187.64;1788022;80;21503;-74
2021/07/31 03:06:16;;;;;;;9.95;8.55;;;;;;;23.20;59.80;99184.23;1784195;80;21479;-74
2021/07/31 03:08:43;;;;;;;13.03;8.33;;;;;;;23.16;59.83;99189.38;1740584;81;21036;-74
2021/07/31 03:11:10;;;;;;;8.30;7.30;;;;;;;23.15;59.84;99191.89;1736339;81;21048;-72
2021/07/31 03:13:38;;;;;;;9.80;7.30;;;;;;;23.19;59.38;99196.34;1757320;81;21539;-73
2021/07/31 03:16:10;;;;;;;7.58;6.80;;;;;;;23.24;59.17;99194.73;1757118;81;20967;-73
2021/07/31 03:18:35;;;;;;;14.18;8.88;;;;;;;23.27;59.14;99200.89;1756132;81;20993;-72
2021/07/31 03:21:03;;;;;;;12.23;7.65;;;;;;;23.24;58.54;99200.80;1756013;81;21035;-73
2021/07/31 03:23:31;;;;;;;13.62;8.83;;;;;;;23.24;58.68;99202.16;1757034;81;21023;-72
2021/07/31 03:25:59;;;;;;;17.90;8.00;;;;;;;23.25;59.21;99209.26;1736288;81;21536;-73
2021/07/31 03:28:26;;;;;;;7.92;6.85;;;;;;;23.28;58.75;99207.19;1755515;81;20954;-73
2021/07/31 03:30:55;;;;;;;7.53;6.72;;;;;;;23.24;58.53;99209.83;1742581;81;21051;-73
2021/07/31 03:33:21;;;;;;;12.60;6.95;;;;;;;23.22;58.61;99211.30;1755844;81;21570;-73
2021/07/31 03:35:53;;;;;;;11.18;7.62;;;;;;;23.23;58.54;99216.45;1736101;81;20991;-73
2021/07/31 03:38:25;;;;;;;13.53;7.15;;;;;;;23.27;58.46;99219.30;1755461;81;21053;-73
2021/07/31 03:40:52;;;;;;;11.55;8.15;;;;;;;23.31;58.20;99209.26;1755768;81;21522;-73
2021/07/31 03:43:20;;;;;;;9.13;7.78;;;;;;;23.35;57.84;99215.08;1755362;81;20959;-72
2021/07/31 03:45:47;;;;;;;7.15;6.53;;;;;;;23.39;57.75;99217.92;1755808;81;21035;-72
2021/07/31 03:48:16;;;;;;;13.20;8.23;;;;;;;23.42;57.66;99225.45;1755540;81;21533;-73
2021/07/31 03:50:43;;;;;;;22.17;7.42;;;;;;;23.44;57.70;99222.64;1753288;81;21117;-73
2021/07/31 03:53:11;;;;;;;7.60;6.90;;;;;;;23.46;57.84;99223.64;1736313;81;20916;-72
2021/07/31 03:55:46;;;;;;;7.80;6.62;;;;;;;23.49;58.16;99219.42;1755870;81;20912;-72
2021/07/31 03:58:13;;;;;;;11.28;7.55;;;;;;;23.49;57.87;99222.97;1735515;81;21565;-74
2021/07/31 04:00:41;;;;;;;9.53;7.20;;;;;;;23.50;57.93;99216.91;1755892;80;21010;-72
2021/07/31 04:03:09;;;;;;;9.08;8.18;;;;;;;23.52;57.62;99229.70;1759380;80;21133;-72
2021/07/31 04:05:40;;;;;;;8.85;7.67;;;;;;;23.54;57.64;99227.42;1759835;80;20992;-71
2021/07/31 04:08:26;;;;;;;10.03;7.60;;;;;;;23.55;57.28;99220.19;1706650;83;20982;-71
2021/07/31 04:11:11;;;;;;;7.45;5.85;;;;;;;23.56;57.36;99223.16;1736543;81;20984;-71
2021/07/31 04:13:55;;;;;;;8.53;7.08;;;;;;;23.58;57.34;99230.49;1755620;81;22190;-72
2021/07/31 04:16:30;;;;;;;9.28;7.15;;;;;;;23.60;56.87;99224.06;1769629;80;21137;-72
2021/07/31 04:18:56;;;;;;;9.75;7.10;;;;;;;23.62;56.66;99220.41;1772521;80;21512;-72
2021/07/31 04:21:23;;;;;;;11.78;6.67;;;;;;;23.66;56.24;99226.00;1735841;81;20983;-73
2021/07/31 04:23:49;;;;;;;9.45;7.95;;;;;;;23.69;56.05;99230.22;1736011;81;21019;-72
2021/07/31 04:26:17;;;;;;;11.93;8.28;;;;;;;23.73;56.40;99231.14;1752907;81;20980;-73
2021/07/31 04:28:45;;;;;;;7.15;6.45;;;;;;;23.75;56.12;99230.77;1735454;81;21191;-72
2021/07/31 04:31:14;;;;;;;9.48;7.15;;;;;;;23.79;56.02;99226.98;1736417;80;20967;-73
2021/07/31 04:33:41;;;;;;;9.48;7.22;;;;;;;23.83;56.24;99230.66;1739397;81;21094;-72
2021/07/31 04:36:08;;;;;;;11.18;6.53;;;;;;;23.86;55.77;99225.83;1772440;80;21117;-72
2021/07/31 04:38:35;;;;;;;12.13;6.35;;;;;;;23.90;55.76;99230.84;1762156;80;21520;-72
2021/07/31 04:41:03;;;;;;;8.15;6.17;;;;;;;23.95;55.74;99231.73;1735695;81;21858;-73
2021/07/31 04:43:32;;;;;;;11.35;7.65;;;;;;;23.99;55.25;99229.31;1744657;81;21544;-71
2021/07/31 04:45:59;;;;;;;10.90;7.47;;;;;;;24.03;55.00;99230.80;1744399;81;21515;-73
2021/07/31 04:48:26;;;;;;;7.92;7.10;;;;;;;24.06;54.99;99226.78;1744510;82;21018;-72
2021/07/31 04:51:01;;;;;;;10.53;7.40;;;;;;;24.09;55.04;99233.51;1732690;81;22341;-72
2021/07/31 04:53:29;;;;;;;7.42;6.60;;;;;;;24.13;55.25;99228.91;1744861;81;21018;-71
2021/07/31 04:55:56;;;;;;;11.78;8.40;;;;;;;24.18;55.00;99230.05;1755045;80;21032;-71
2021/07/31 04:58:24;;;;;;;10.00;7.10;;;;;;;24.22;55.46;99229.60;1776983;80;20963;-72
2021/07/31 05:00:51;;;;;;;14.35;7.60;;;;;;;24.24;55.58;99228.66;1786344;80;21102;-73
2021/07/31 05:03:18;;;;;;;11.28;7.65;;;;;;;24.30;55.57;99225.31;1738472;81;20975;-72
2021/07/31 05:05:45;;;;;;;8.55;7.75;;;;;;;24.38;55.20;99220.79;1785062;80;21799;-73
2021/07/31 05:08:13;;;;;;;9.53;8.28;;;;;;;24.45;55.07;99229.23;1788234;80;21520;-73
2021/07/31 05:10:48;;;;;;;12.58;8.18;;;;;;;24.54;55.12;99226.31;1759935;81;20979;-72
2021/07/31 05:13:14;;;;;;;10.98;9.00;;;;;;;24.63;55.30;99228.31;1756796;81;21018;-71
2021/07/31 05:15:42;;;;;;;18.92;9.28;;;;;;;24.71;55.47;99230.08;1744536;81;21023;-70
2021/07/31 05:18:10;;;;;;;11.75;9.30;;;;;;;24.78;55.72;99231.65;1757636;80;21140;-71
2021/07/31 05:20:45;;;;;;;16.50;9.90;;;;;;;24.84;55.65;99230.23;1770837;80;20988;-73
2021/07/31 05:23:13;;;;;;;12.00;9.25;;;;;;;24.90;55.61;99224.69;1758729;81;21082;-70
2021/07/31 05:25:48;;;;;;;11.93;8.50;;;;;;;24.97;55.32;99226.83;1706308;83;20959;-72
2021/07/31 05:28:12;;;;;;;10.35;7.97;;;;;;;25.04;55.05;99234.66;1691155;83;21062;-70
2021/07/31 05:30:40;;;;;;;14.83;8.13;;;;;;;25.12;54.72;99237.83;1715437;82;21084;-70
2021/07/31 05:33:07;;;;;;;11.45;7.58;;;;;;;25.17;54.28;99238.93;1729763;83;20994;-70
2021/07/31 05:35:33;;;;;;;10.53;9.38;;;;;;;25.22;54.11;99240.61;1718049;81;21469;-71
2021/07/31 05:38:01;;;;;;;17.90;8.98;;;;;;;25.28;53.58;99239.73;1772112;80;21052;-72
2021/07/31 05:40:28;;;;;;;9.03;8.13;;;;;;;25.33;53.58;99238.08;1781491;78;21481;-71
2021/07/31 05:42:55;;;;;;;13.53;7.70;;;;;;;25.37;53.64;99237.00;1721114;82;21084;-69
2021/07/31 05:45:23;;;;;;;12.25;7.12;;;;;;;25.43;53.22;99238.32;1742585;82;21627;-70
2021/07/31 05:47:50;;;;;;;13.15;8.03;;;;;;;25.49;53.24;99238.84;1758447;81;20967;-70
2021/07/31 05:50:16;;;;;;;7.58;6.55;;;;;;;25.54;52.39;99241.31;1758429;81;21564;-68
2021/07/31 05:52:43;;;;;;;9.60;6.72;;;;;;;25.60;52.05;99244.05;1759480;81;21015;-69
2021/07/31 05:55:12;;;;;;;9.88;7.78;;;;;;;25.66;51.75;99234.31;1764877;80;21302;-68
2021/07/31 05:57:38;;;;;;;9.10;7.85;;;;;;;25.73;51.86;99239.99;1786099;80;20960;-69
2021/07/31 06:00:07;;;;;;;12.47;8.45;;;;;;;25.80;52.67;99243.48;1772808;80;20936;-70
2021/07/31 06:02:35;;;;;;;13.88;7.37;;;;;;;25.86;52.82;99240.06;1735936;81;21495;-69
2021/07/31 06:05:02;;;;;;;12.35;7.47;;;;;;;25.92;52.59;99238.63;1737549;81;20952;-70
2021/07/31 06:07:29;;;;;;;9.85;7.05;;;;;;;25.98;52.55;99239.13;1760258;81;21130;-71
2021/07/31 06:09:55;;;;;;;13.80;7.80;;;;;;;26.04;51.04;99244.58;1760075;81;20991;-68
2021/07/31 06:12:23;;;;;;;10.15;6.25;;;;;;;26.11;50.96;99247.46;1729497;81;21015;-70
2021/07/31 06:14:49;;;;;;;14.20;5.95;;;;;;;26.19;50.40;99249.77;1760323;80;21485;-69
2021/07/31 06:17:17;;;;;;;7.72;6.92;;;;;;;26.25;50.08;99246.97;1760267;80;21040;-70
2021/07/31 06:19:43;;;;;;;12.95;6.47;;;;;;;26.32;49.49;99247.12;1760132;81;21099;-71
2021/07/31 06:22:10;;;;;;;8.40;5.70;;;;;;;26.38;49.31;99249.19;1746744;81;20988;-70
2021/07/31 06:24:37;;;;;;;8.05;5.75;;;;;;;26.46;48.76;99256.45;1744291;82;20939;-69
2021/07/31 06:27:04;;;;;;;5.87;5.22;;;;;;;26.52;48.35;99257.53;1726101;82;21057;-71
2021/07/31 06:29:31;;;;;;;8.95;7.00;;;;;;;26.59;48.37;99251.55;1756938;80;21525;-70
2021/07/31 06:31:57;;;;;;;8.60;6.05;;;;;;;26.66;48.03;99257.20;1756462;80;21217;-70
2021/07/31 06:34:25;;;;;;;10.48;6.12;;;;;;;26.73;46.80;99275.25;1766281;80;21554;-69
2021/07/31 06:36:52;;;;;;;17.12;6.90;;;;;;;26.79;46.35;99268.85;1738575;81;21034;-70
2021/07/31 06:39:19;;;;;;;13.78;6.20;;;;;;;26.84;46.13;99255.55;1755641;81;20948;-70
2021/07/31 06:41:45;;;;;;;8.68;6.40;;;;;;;26.89;46.17;99258.61;1755474;81;21068;-71
2021/07/31 06:44:12;;;;;;;9.73;5.37;;;;;;;26.94;46.10;99258.88;1755572;81;21174;-71
2021/07/31 06:46:38;;;;;;;9.68;5.28;;;;;;;26.98;46.03;99266.05;1756069;81;20967;-68
2021/07/31 06:49:04;;;;;;;12.47;6.45;;;;;;;27.04;46.00;99262.40;1765489;80;21000;-75
2021/07/31 06:51:31;;;;;;;15.93;6.37;;;;;;;27.09;46.27;99262.89;1784560;80;21349;-70
2021/07/31 06:54:01;;;;;;;12.45;6.40;;;;;;;27.13;46.56;99257.42;1755703;81;21450;-70
2021/07/31 06:56:27;;;;;;;9.45;5.83;;;;;;;27.18;46.53;99253.77;1755966;81;21050;-71
2021/07/31 06:58:54;;;;;;;7.75;5.75;;;;;;;27.22;45.47;99249.66;1756174;80;20993;-71
2021/07/31 07:01:20;;;;;;;13.38;5.92;;;;;;;27.27;44.65;99250.73;1769793;80;21028;-70
2021/07/31 07:03:51;;;;;;;8.55;5.53;;;;;;;27.29;44.20;99245.03;1756067;80;21932;-72
2021/07/31 07:06:17;;;;;;;8.63;6.00;;;;;;;27.34;43.57;99238.39;1736149;81;21528;-70
2021/07/31 07:08:45;;;;;;;9.13;5.30;;;;;;;27.40;43.18;99248.54;1735765;81;21039;-71
2021/07/31 07:11:14;;;;;;;6.20;4.65;;;;;;;27.44;43.09;99246.04;1755789;81;20983;-70
2021/07/31 07:13:43;;;;;;;6.92;4.65;;;;;;;27.48;42.83;99244.73;1736125;81;21045;-70
2021/07/31 07:16:11;;;;;;;5.35;4.53;;;;;;;27.51;42.29;99256.44;1755796;81;20975;-69
2021/07/31 07:18:37;;;;;;;5.97;5.37;;;;;;;27.56;42.52;99247.83;1735890;81;21003;-69
2021/07/31 07:21:08;;;;;;;8.78;5.75;;;;;;;27.58;42.36;99246.85;1770404;80;21174;-71
2021/07/31 07:23:35;;;;;;;6.92;5.53;;;;;;;27.61;42.32;99243.36;1734127;81;21544;-70
2021/07/31 07:26:01;;;;;;;7.87;6.17;;;;;;;27.63;41.93;99238.23;1758712;80;21248;-70
2021/07/31 07:28:29;;;;;;;6.75;5.78;;;;;;;27.70;41.80;99250.78;1785355;80;21027;-70
2021/07/31 07:30:56;;;;;;;6.83;5.47;;;;;;;27.79;41.10;99250.49;1758112;80;21094;-69
2021/07/31 07:33:25;;;;;;;6.03;5.40;;;;;;;27.79;40.63;99246.34;1739568;81;21083;-69
2021/07/31 07:35:51;;;;;;;5.97;5.28;;;;;;;27.77;40.84;99252.86;1737869;81;20955;-70
2021/07/31 07:38:18;;;;;;;10.28;6.10;;;;;;;27.78;41.12;99247.52;1738924;82;21090;-71
2021/07/31 07:40:46;;;;;;;9.15;4.97;;;;;;;27.82;40.83;99251.14;1728020;82;21104;-71
2021/07/31 07:43:13;;;;;;;6.67;4.67;;;;;;;27.87;40.27;99251.58;1758155;80;21020;-70
2021/07/31 07:45:45;;;;;;;8.78;5.20;;;;;;;27.90;40.05;99250.85;1785462;80;21117;-71
2021/07/31 07:48:12;;;;;;;6.12;5.28;;;;;;;27.95;40.00;99253.28;1705594;83;21531;-72
2021/07/31 07:50:41;;;;;;;9.33;5.30;;;;;;;28.01;39.87;99244.84;1724314;83;21003;-70
2021/07/31 07:53:09;;;;;;;6.40;5.50;;;;;;;28.08;39.42;99248.29;1748863;81;21018;-71
2021/07/31 07:55:35;;;;;;;9.25;5.72;;;;;;;28.14;39.40;99250.39;1734772;81;21010;-72
2021/07/31 07:58:01;;;;;;;17.02;14.50;;;;;;;28.20;39.89;99255.00;1763203;80;21279;-70
2021/07/31 08:00:27;;;;;;;6.83;6.05;;;;;;;28.22;39.75;99249.87;1785110;80;20979;-70
2021/07/31 08:02:54;;;;;;;10.75;4.65;;;;;;;28.22;38.45;99264.28;1761451;80;21639;-71
2021/07/31 08:05:20;;;;;;;8.73;5.33;;;;;;;28.24;37.45;99251.68;1720494;82;21097;-68
2021/07/31 08:07:47;;;;;;;8.18;5.20;;;;;;;28.31;37.13;99253.70;1727901;80;21066;-68
2021/07/31 08:10:14;;;;;;;12.45;5.85;;;;;;;28.32;37.53;99246.42;1785362;80;21052;-69
2021/07/31 08:12:40;;;;;;;9.98;4.90;;;;;;;28.32;37.91;99246.42;1771978;80;21059;-69
2021/07/31 08:15:09;;;;;;;7.28;4.62;;;;;;;28.32;37.58;99247.80;1734869;81;21480;-71
2021/07/31 08:17:35;;;;;;;7.95;4.75;;;;;;;28.38;37.45;99255.98;1761382;80;21094;-67
2021/07/31 08:20:06;;;;;;;5.42;4.80;;;;;;;28.48;37.32;99251.73;1785592;80;20904;-70
2021/07/31 08:22:33;;;;;;;6.12;5.53;;;;;;;28.58;36.93;99251.05;1727979;82;21107;-68
2021/07/31 08:25:00;;;;;;;13.62;5.75;;;;;;;28.65;36.85;99249.72;1754245;81;21031;-68
2021/07/31 08:27:26;;;;;;;6.90;5.45;;;;;;;28.67;36.87;99246.58;1754136;81;20928;-69
2021/07/31 08:29:54;;;;;;;11.63;6.05;;;;;;;28.73;37.45;99248.63;1754226;81;21086;-69
2021/07/31 08:32:20;;;;;;;9.43;6.97;;;;;;;28.82;37.64;99252.48;1731662;82;21512;-73
2021/07/31 08:34:47;;;;;;;10.38;7.47;;;;;;;28.92;37.35;99246.25;1747726;80;21125;-68
2021/07/31 08:37:13;;;;;;;6.20;5.25;;;;;;;28.93;37.44;99241.69;1754257;80;20925;-69
2021/07/31 08:39:40;;;;;;;7.03;5.92;;;;;;;28.91;37.42;99240.49;1754827;80;21544;-69
2021/07/31 08:42:07;;;;;;;8.83;6.25;;;;;;;28.99;37.27;99247.09;1753701;80;20988;-70
2021/07/31 08:44:36;;;;;;;6.30;5.70;;;;;;;29.04;36.95;99246.73;1738550;81;20932;-72
2021/07/31 08:47:04;;;;;;;6.45;5.72;;;;;;;29.01;37.25;99248.89;1751340;80;21761;-70
2021/07/31 08:49:33;;;;;;;9.80;6.12;;;;;;;29.03;36.72;99246.52;1769573;80;20917;-68
2021/07/31 08:52:01;;;;;;;9.10;5.80;;;;;;;29.04;36.86;99241.19;1781771;80;21840;-70
2021/07/31 08:54:28;;;;;;;20.90;6.10;;;;;;;29.11;36.95;99250.16;1754409;81;20993;-71
2021/07/31 08:56:55;;;;;;;8.78;5.45;;;;;;;29.22;36.84;99244.08;1735174;81;21059;-69
2021/07/31 08:59:26;;;;;;;7.90;6.08;;;;;;;29.32;36.77;99238.44;1734764;81;22261;-69
2021/07/31 09:01:53;;;;;;;12.50;6.97;;;;;;;29.44;36.72;99248.63;1752745;80;21422;-69
2021/07/31 09:04:19;;;;;;;12.15;5.37;;;;;;;29.46;36.56;99242.69;1734932;81;21480;-71
2021/07/31 09:06:46;;;;;;;6.05;5.15;;;;;;;29.46;36.53;99242.09;1734835;81;21017;-71
2021/07/31 09:09:13;;;;;;;13.05;4.87;;;;;;;29.52;36.28;99236.19;1733488;81;21544;-71
2021/07/31 09:11:59;;;;;;;6.72;4.97;;;;;;;29.49;36.30;99233.61;1729510;81;20975;-69
2021/07/31 09:14:26;;;;;;;10.88;8.00;;;;;;;29.52;36.45;99228.67;1752956;81;21484;-71
2021/07/31 09:16:54;;;;;;;12.70;8.28;;;;;;;29.62;36.44;99235.45;1752520;80;21470;-72
2021/07/31 09:19:21;;;;;;;7.80;5.87;;;;;;;29.73;35.84;99235.72;1738033;80;21047;-73
2021/07/31 09:21:50;;;;;;;5.47;4.97;;;;;;;29.84;35.46;99239.31;1783319;80;21027;-71
2021/07/31 09:24:23;;;;;;;6.15;5.45;;;;;;;29.88;34.53;99229.06;1733397;81;21650;-71
2021/07/31 09:26:52;;;;;;;8.43;5.30;;;;;;;29.77;34.67;99226.83;1769337;80;21028;-70
2021/07/31 09:29:33;;;;;;;8.73;4.75;;;;;;;29.77;35.03;99233.76;1777473;80;21003;-73
2021/07/31 09:32:02;;;;;;;13.38;4.97;;;;;;;29.77;35.17;99219.89;1775489;80;21183;-72
2021/07/31 09:34:35;;;;;;;10.10;5.42;;;;;;;29.81;35.16;99219.31;1775487;80;21522;-73
2021/07/31 09:37:27;;;;;;;11.85;4.83;;;;;;;29.83;35.02;99226.63;1763294;80;26794;-73
2021/07/31 09:40:02;;;;;;;6.22;5.40;;;;;;;29.79;34.82;99225.83;1772309;80;20967;-73
2021/07/31 09:42:36;;;;;;;5.95;4.53;;;;;;;29.67;34.25;99226.77;1789288;80;21509;-71
2021/07/31 09:45:12;;;;;;;7.33;5.03;;;;;;;29.59;34.88;99223.77;1769277;79;20907;-73
2021/07/31 09:48:00;;;;;;;5.47;4.97;;;;;;;29.55;35.40;99218.19;1790014;79;21047;-74
2021/07/31 09:50:40;;;;;;;7.58;5.47;;;;;;;29.58;35.03;99224.95;1739260;79;21086;-82
2021/07/31 09:53:22;;;;;;;5.80;5.03;;;;;;;29.62;35.16;99214.08;1699926;82;21703;-76
2021/07/31 09:55:50;;;;;;;5.20;4.80;;;;;;;29.68;35.35;99218.66;1704705;83;21047;-78
2021/07/31 09:58:19;;;;;;;10.25;5.35;;;;;;;29.73;35.42;99221.86;1700230;80;22410;-77
2021/07/31 10:00:50;;;;;;;6.78;4.75;;;;;;;29.83;35.54;99214.77;1756516;79;27501;-84
2021/07/31 10:03:17;;;;;;;5.40;4.90;;;;;;;29.94;35.25;99213.44;1749160;81;22227;-83
2021/07/31 10:05:44;;;;;;;5.45;4.95;;;;;;;30.07;34.81;99211.91;1765336;81;21550;-75
2021/07/31 10:08:12;;;;;;;9.58;4.97;;;;;;;30.13;34.67;99211.70;1762369;81;21002;-75
2021/07/31 10:10:41;;;;;;;5.80;5.30;;;;;;;30.18;34.77;99212.12;1750516;80;20971;-78
2021/07/31 10:13:07;;;;;;;9.98;5.87;;;;;;;30.29;34.73;99207.41;1750310;81;21554;-75
2021/07/31 10:15:35;;;;;;;6.50;5.47;;;;;;;30.43;34.43;99205.83;1761848;81;21544;-75
2021/07/31 10:18:08;;;;;;;5.70;5.15;;;;;;;30.53;34.08;99200.33;1754530;81;20976;-78
2021/07/31 10:20:35;;;;;;;7.15;5.70;;;;;;;30.60;34.08;99200.32;1728335;82;20980;-78
2021/07/31 10:23:01;;;;;;;7.55;5.55;;;;;;;30.68;34.15;99202.52;1759833;81;20992;-78
2021/07/31 10:25:28;;;;;;;7.10;5.92;;;;;;;30.78;33.52;99192.61;1760965;81;21040;-77
2021/07/31 10:27:54;;;;;;;4.83;4.35;;;;;;;30.89;33.14;99190.63;1758760;81;21192;-74
2021/07/31 10:30:38;;;;;;;7.60;5.33;;;;;;;30.91;33.37;99195.17;1693571;81;21096;-82
2021/07/31 10:33:02;;;;;;;7.53;5.20;;;;;;;31.02;32.97;99193.22;1764183;81;21117;-78
2021/07/31 10:35:34;;;;;;;6.25;4.92;;;;;;;31.16;32.58;99187.64;1761147;81;20969;-75
2021/07/31 10:38:06;;;;;;;9.80;6.65;;;;;;;31.22;32.63;99184.66;1764574;81;21087;-75
2021/07/31 10:40:42;;;;;;;8.53;6.05;;;;;;;31.26;32.71;99181.27;1765468;81;39040;-75
2021/07/31 10:43:11;;;;;;;6.17;5.50;;;;;;;31.37;32.42;99186.77;1765394;81;21007;-77
2021/07/31 10:45:38;;;;;;;11.90;7.25;;;;;;;31.49;32.62;99182.19;1765690;81;21528;-77
2021/07/31 10:48:24;;;;;;;5.58;5.08;;;;;;;31.62;32.39;99191.69;1740744;81;20963;-76
2021/07/31 10:50:50;;;;;;;8.93;5.67;;;;;;;31.74;31.92;99182.12;1762943;80;20982;-78
2021/07/31 10:53:19;;;;;;;8.90;6.10;;;;;;;31.80;31.95;99184.69;1784007;80;21134;-75
2021/07/31 10:55:55;;;;;;;8.28;6.12;;;;;;;31.88;32.00;99179.27;1770531;80;20963;-77
2021/07/31 10:58:22;;;;;;;9.73;8.73;;;;;;;32.00;31.76;99185.75;1733423;81;21490;-78
2021/07/31 11:00:52;;;;;;;7.62;6.92;;;;;;;32.09;31.46;99185.34;1721814;82;20970;-78
2021/07/31 11:03:25;;;;;;;8.85;5.78;;;;;;;32.07;31.69;99193.28;1721779;83;21050;-78
2021/07/31 11:05:55;;;;;;;;;;;;;;;31.91;31.66;99195.14;1730594;83;21601;-83
2021/07/31 11:08:23;;;;;;;8.00;6.35;;;;;;;31.73;32.27;99182.72;1722286;81;20135;-83
2021/07/31 11:10:55;;;;;;;6.90;5.60;;;;;;;31.70;32.62;99184.92;1733413;82;21000;-77
2021/07/31 11:13:31;;;;;;;9.15;6.75;;;;;;;31.74;32.77;99170.41;1733602;82;20982;-81
2021/07/31 11:16:18;;;;;;;7.22;6.53;;;;;;;31.79;32.92;99171.97;1733832;82;21046;-75
2021/07/31 11:18:58;;;;;;;8.40;6.20;;;;;;;31.85;32.77;99173.11;1733721;82;22130;-74
2021/07/31 11:21:33;;;;;;;6.83;6.17;;;;;;;31.90;32.68;99171.30;1702559;82;21527;-73
2021/07/31 11:24:10;;;;;;;8.50;5.47;;;;;;;31.95;32.60;99178.63;1733361;82;21567;-76
2021/07/31 11:26:51;;;;;;;9.05;6.65;;;;;;;31.91;32.14;99169.52;1733751;82;21507;-74
2021/07/31 11:29:25;;;;;;;12.07;8.53;;;;;;;31.83;32.71;99162.41;1733899;81;21101;-75
2021/07/31 11:32:09;;;;;;;8.95;6.70;;;;;;;31.76;32.67;99158.86;1733472;82;21990;-76
2021/07/31 11:34:42;;;;;;;8.95;6.20;;;;;;;31.69;32.56;99159.70;1719287;82;21026;-76
2021/07/31 11:37:10;;;;;;;6.83;5.83;;;;;;;31.67;32.61;99157.91;1733701;82;21040;-76